createdAt,value
2016-12-15T00:00:25.880Z,4.3
2016-12-15T00:01:29.326Z,4.2
2016-12-15T00:02:32.777Z,4.3
2016-12-15T00:03:35.723Z,4.3
2016-12-15T00:04:39.167Z,4.2
2016-12-15T00:05:42.110Z,4.2
2016-12-15T00:06:45.559Z,4.1
2016-12-15T00:07:48.501Z,4.2
2016-12-15T00:08:51.946Z,4.1
2016-12-15T00:09:55.023Z,4.1
2016-12-15T00:10:58.463Z,4.1
2016-12-15T00:13:04.823Z,4.1
2016-12-15T00:14:07.770Z,4.1
2016-12-15T00:15:11.215Z,4.1
2016-12-15T00:16:14.154Z,4.1
2016-12-15T00:17:17.624Z,4.1
2016-12-15T00:18:20.572Z,4.1
2016-12-15T00:19:24.018Z,4.1
2016-12-15T00:20:26.956Z,4.1
2016-12-15T00:21:30.396Z,4.1
2016-12-15T00:22:33.837Z,4.1
2016-12-15T00:23:36.779Z,4.1
2016-12-15T00:24:40.229Z,4.1
2016-12-15T00:25:43.176Z,4
2016-12-15T00:27:49.531Z,4
2016-12-15T00:28:53.112Z,4
2016-12-15T00:29:56.055Z,4
2016-12-15T00:30:59.502Z,4
2016-12-15T00:32:02.442Z,4
2016-12-15T00:33:05.888Z,4
2016-12-15T00:34:08.831Z,4
2016-12-15T00:35:12.274Z,4
2016-12-15T00:36:15.211Z,4
2016-12-15T00:37:18.651Z,4.1
2016-12-15T00:38:21.590Z,4
2016-12-15T00:40:28.272Z,4
2016-12-15T00:41:31.213Z,4
2016-12-15T00:42:34.658Z,4
2016-12-15T00:43:37.601Z,4
2016-12-15T00:44:41.052Z,4
2016-12-15T00:45:43.998Z,4
2016-12-15T00:46:47.450Z,4
2016-12-15T00:47:50.896Z,4
2016-12-15T00:48:53.836Z,4
2016-12-15T00:49:57.279Z,3.9
2016-12-15T00:51:00.220Z,3.9
2016-12-15T00:52:03.663Z,3.9
2016-12-15T00:54:10.019Z,3.9
2016-12-15T00:55:12.968Z,3.9
2016-12-15T00:56:16.419Z,3.8
2016-12-15T00:57:19.499Z,3.9
2016-12-15T00:58:22.947Z,3.9
2016-12-15T00:59:25.889Z,3.9
2016-12-15T01:01:32.237Z,3.9
2016-12-15T01:02:35.687Z,3.9
2016-12-15T01:03:38.629Z,3.9
2016-12-15T01:04:42.076Z,3.9
2016-12-15T01:05:45.018Z,3.8
2016-12-15T01:07:51.372Z,3.9
2016-12-15T01:08:54.815Z,3.9
2016-12-15T01:09:58.263Z,3.9
2016-12-15T01:11:01.206Z,3.9
2016-12-15T01:12:04.692Z,3.9
2016-12-15T01:13:07.638Z,3.9
2016-12-15T01:14:11.078Z,3.9
2016-12-15T01:15:14.018Z,3.9
2016-12-15T01:16:17.462Z,3.9
2016-12-15T01:17:20.430Z,3.9
2016-12-15T01:18:23.728Z,3.9
2016-12-15T01:19:26.674Z,3.8
2016-12-15T01:20:30.113Z,3.8
2016-12-15T01:21:33.557Z,3.8
2016-12-15T01:22:36.493Z,3.8
2016-12-15T01:23:39.941Z,3.8
2016-12-15T01:24:42.888Z,3.8
2016-12-15T01:25:46.333Z,3.8
2016-12-15T01:26:49.274Z,3.8
2016-12-15T01:27:52.724Z,3.8
2016-12-15T01:28:55.663Z,3.8
2016-12-15T01:29:59.106Z,3.8
2016-12-15T01:31:02.190Z,3.8
2016-12-15T01:32:05.133Z,3.7
2016-12-15T01:33:08.608Z,3.7
2016-12-15T01:34:11.547Z,3.7
2016-12-15T01:35:14.992Z,3.6
2016-12-15T01:36:18.433Z,3.7
2016-12-15T01:37:21.374Z,3.6
2016-12-15T01:38:24.823Z,3.7
2016-12-15T01:39:27.759Z,3.7
2016-12-15T01:40:31.208Z,3.8
2016-12-15T01:41:34.154Z,3.8
2016-12-15T01:42:37.603Z,3.8
2016-12-15T01:43:40.549Z,3.8
2016-12-15T01:44:43.996Z,3.8
2016-12-15T01:45:46.937Z,3.8
2016-12-15T01:46:50.384Z,3.8
2016-12-15T01:47:53.323Z,3.8
2016-12-15T01:49:59.671Z,3.8
2016-12-15T01:52:06.025Z,3.8
2016-12-15T01:53:09.468Z,3.8
2016-12-15T01:54:12.934Z,3.8
2016-12-15T01:55:15.875Z,3.7
2016-12-15T01:56:18.820Z,3.8
2016-12-15T01:57:22.270Z,3.8
2016-12-15T01:58:25.716Z,3.7
2016-12-15T01:59:28.654Z,3.7
2016-12-15T02:00:32.103Z,3.7
2016-12-15T02:01:35.044Z,3.7
2016-12-15T02:02:38.497Z,3.7
2016-12-15T02:04:44.848Z,3.7
2016-12-15T02:05:47.791Z,3.7
2016-12-15T02:06:51.236Z,3.7
2016-12-15T02:07:54.179Z,3.7
2016-12-15T02:08:57.625Z,3.6
2016-12-15T02:10:00.559Z,3.7
2016-12-15T02:11:04.005Z,3.8
2016-12-15T02:12:06.949Z,3.8
2016-12-15T02:13:10.395Z,3.8
2016-12-15T02:14:13.341Z,3.7
2016-12-15T02:17:23.141Z,3.8
2016-12-15T02:18:26.086Z,3.8
2016-12-15T02:19:29.532Z,3.7
2016-12-15T02:20:32.976Z,3.6
2016-12-15T02:21:35.920Z,3.6
2016-12-15T02:22:39.369Z,3.6
2016-12-15T02:23:42.311Z,3.6
2016-12-15T02:24:45.757Z,3.6
2016-12-15T02:25:48.699Z,3.6
2016-12-15T02:26:52.146Z,3.6
2016-12-15T02:27:55.097Z,3.6
2016-12-15T02:28:58.551Z,3.6
2016-12-15T02:30:01.504Z,3.6
2016-12-15T02:31:04.955Z,3.6
2016-12-15T02:32:07.933Z,3.6
2016-12-15T02:33:11.383Z,3.6
2016-12-15T02:34:14.326Z,3.6
2016-12-15T02:35:17.777Z,3.6
2016-12-15T02:36:20.748Z,3.6
2016-12-15T02:37:24.199Z,3.6
2016-12-15T02:38:27.143Z,3.5
2016-12-15T02:39:30.588Z,3.6
2016-12-15T02:40:33.557Z,3.5
2016-12-15T02:42:39.925Z,3.5
2016-12-15T02:43:43.372Z,3.5
2016-12-15T02:44:46.315Z,3.5
2016-12-15T02:45:49.831Z,3.5
2016-12-15T02:46:52.781Z,3.5
2016-12-15T02:47:56.225Z,3.5
2016-12-15T02:48:59.166Z,3.5
2016-12-15T02:50:02.613Z,3.5
2016-12-15T02:51:05.556Z,3.5
2016-12-15T02:52:08.997Z,3.5
2016-12-15T02:53:11.947Z,3.5
2016-12-15T02:54:15.399Z,3.5
2016-12-15T02:55:18.351Z,3.5
2016-12-15T02:56:21.803Z,3.5
2016-12-15T02:57:24.745Z,3.5
2016-12-15T02:58:28.194Z,3.5
2016-12-15T03:00:34.553Z,3.5
2016-12-15T03:01:37.503Z,3.5
2016-12-15T03:02:40.949Z,3.5
2016-12-15T03:03:43.892Z,3.5
2016-12-15T03:04:47.336Z,3.5
2016-12-15T03:05:50.282Z,3.5
2016-12-15T03:06:53.741Z,3.4
2016-12-15T03:07:56.686Z,3.4
2016-12-15T03:09:00.136Z,3.5
2016-12-15T03:10:03.079Z,3.5
2016-12-15T03:11:06.532Z,3.4
2016-12-15T03:12:09.477Z,3.5
2016-12-15T03:13:12.923Z,3.5
2016-12-15T03:14:15.866Z,3.5
2016-12-15T03:15:19.312Z,3.4
2016-12-15T03:16:22.258Z,3.4
2016-12-15T03:17:25.384Z,3.4
2016-12-15T03:18:28.838Z,3.3
2016-12-15T03:19:31.786Z,3.3
2016-12-15T03:20:35.234Z,3.3
2016-12-15T03:21:38.176Z,3.3
2016-12-15T03:22:41.620Z,3.3
2016-12-15T03:23:44.569Z,3.3
2016-12-15T03:24:48.023Z,3.3
2016-12-15T03:25:50.971Z,3.3
2016-12-15T03:26:54.422Z,3.3
2016-12-15T03:27:57.364Z,3.3
2016-12-15T03:29:00.817Z,3.3
2016-12-15T03:30:03.791Z,3.2
2016-12-15T03:31:07.240Z,3.3
2016-12-15T03:32:10.187Z,3.2
2016-12-15T03:33:13.635Z,3.2
2016-12-15T03:34:16.580Z,3.2
2016-12-15T03:35:20.035Z,3.3
2016-12-15T03:36:22.978Z,3.2
2016-12-15T03:37:26.424Z,3.1
2016-12-15T03:38:29.366Z,3.2
2016-12-15T03:39:32.815Z,3.2
2016-12-15T03:40:35.765Z,3.2
2016-12-15T03:41:39.216Z,3.1
2016-12-15T03:43:45.570Z,3.1
2016-12-15T03:44:48.511Z,3.1
2016-12-15T03:45:52.095Z,3.1
2016-12-15T03:46:55.038Z,3
2016-12-15T03:47:58.483Z,3
2016-12-15T03:49:01.424Z,3
2016-12-15T03:50:04.867Z,3
2016-12-15T03:51:07.818Z,3
2016-12-15T03:52:11.271Z,3
2016-12-15T03:53:14.217Z,3
2016-12-15T03:54:17.666Z,3
2016-12-15T03:55:20.607Z,3
2016-12-15T03:56:24.054Z,2.9
2016-12-15T03:57:26.996Z,3
2016-12-15T03:58:30.578Z,3
2016-12-15T03:59:33.524Z,3
2016-12-15T04:00:36.473Z,2.9
2016-12-15T04:01:39.925Z,2.9
2016-12-15T04:02:42.876Z,2.9
2016-12-15T04:03:46.330Z,3
2016-12-15T04:04:49.276Z,2.9
2016-12-15T04:05:52.719Z,2.9
2016-12-15T04:07:59.078Z,3
2016-12-15T04:09:02.025Z,3
2016-12-15T04:11:08.388Z,3
2016-12-15T04:12:11.839Z,3
2016-12-15T04:13:14.787Z,3
2016-12-15T04:14:18.237Z,3
2016-12-15T04:15:21.183Z,3
2016-12-15T04:16:24.633Z,3
2016-12-15T04:17:27.576Z,2.9
2016-12-15T04:19:33.937Z,3
2016-12-15T04:20:37.389Z,3
2016-12-15T04:21:40.332Z,3
2016-12-15T04:22:43.781Z,3
2016-12-15T04:23:46.728Z,3
2016-12-15T04:25:53.087Z,2.9
2016-12-15T04:26:56.536Z,2.8
2016-12-15T04:27:59.483Z,2.8
2016-12-15T04:29:02.931Z,2.8
2016-12-15T04:30:05.878Z,2.8
2016-12-15T04:31:09.334Z,2.9
2016-12-15T04:32:12.279Z,2.9
2016-12-15T04:34:18.643Z,2.9
2016-12-15T04:35:22.091Z,2.9
2016-12-15T04:36:25.037Z,2.8
2016-12-15T04:37:28.477Z,2.8
2016-12-15T04:38:31.418Z,2.8
2016-12-15T04:39:34.868Z,2.8
2016-12-15T04:40:37.839Z,2.8
2016-12-15T04:41:41.288Z,2.8
2016-12-15T04:42:44.235Z,2.8
2016-12-15T04:43:47.688Z,2.8
2016-12-15T04:44:50.633Z,2.8
2016-12-15T04:45:54.088Z,2.8
2016-12-15T04:46:57.026Z,2.8
2016-12-15T04:48:00.470Z,2.8
2016-12-15T04:49:03.413Z,2.7
2016-12-15T04:50:06.859Z,2.7
2016-12-15T04:51:09.810Z,2.8
2016-12-15T04:52:13.254Z,2.7
2016-12-15T04:53:16.196Z,2.7
2016-12-15T04:54:19.644Z,2.6
2016-12-15T04:55:22.591Z,2.7
2016-12-15T04:56:25.539Z,2.6
2016-12-15T04:57:28.987Z,2.7
2016-12-15T04:58:31.932Z,2.7
2016-12-15T04:59:35.390Z,2.6
2016-12-15T05:00:38.336Z,2.6
2016-12-15T05:01:41.784Z,2.6
2016-12-15T05:02:44.726Z,2.6
2016-12-15T05:03:48.174Z,2.6
2016-12-15T05:04:51.122Z,2.6
2016-12-15T05:06:57.484Z,2.6
2016-12-15T05:08:00.929Z,2.6
2016-12-15T05:09:03.872Z,2.6
2016-12-15T05:10:07.316Z,2.5
2016-12-15T05:11:10.265Z,2.6
2016-12-15T05:12:13.708Z,2.6
2016-12-15T05:13:16.653Z,2.6
2016-12-15T05:14:20.107Z,2.6
2016-12-15T05:15:23.048Z,2.5
2016-12-15T05:16:26.500Z,2.6
2016-12-15T05:17:29.447Z,2.5
2016-12-15T05:18:32.892Z,2.6
2016-12-15T05:19:35.836Z,2.6
2016-12-15T05:21:42.192Z,2.6
2016-12-15T05:22:45.644Z,2.6
2016-12-15T05:23:48.585Z,2.6
2016-12-15T05:24:52.035Z,2.6
2016-12-15T05:25:54.986Z,2.6
2016-12-15T05:26:58.439Z,2.5
2016-12-15T05:28:01.387Z,2.5
2016-12-15T05:29:04.334Z,2.5
2016-12-15T05:30:07.782Z,2.5
2016-12-15T05:31:10.726Z,2.5
2016-12-15T05:32:14.177Z,2.5
2016-12-15T05:33:17.126Z,2.5
2016-12-15T05:34:20.573Z,2.5
2016-12-15T05:35:23.521Z,2.5
2016-12-15T05:37:29.879Z,2.5
2016-12-15T05:39:36.261Z,2.5
2016-12-15T05:48:02.091Z,2.5
2016-12-15T05:49:05.042Z,2.5
2016-12-15T05:50:08.491Z,2.5
2016-12-15T05:52:14.850Z,2.5
2016-12-15T05:53:17.797Z,2.4
2016-12-15T05:54:21.250Z,2.4
2016-12-15T05:55:24.200Z,2.3
2016-12-15T05:56:27.141Z,2.4
2016-12-15T05:58:33.503Z,2.5
2016-12-15T05:59:36.956Z,2.4
2016-12-15T06:00:39.906Z,2.5
2016-12-15T06:01:43.356Z,2.4
2016-12-15T06:02:46.307Z,2.5
2016-12-15T06:03:49.763Z,2.4
2016-12-15T06:04:52.712Z,2.4
2016-12-15T06:05:56.160Z,2.4
2016-12-15T06:06:59.133Z,2.4
2016-12-15T06:08:02.574Z,2.3
2016-12-15T06:09:05.516Z,2.3
2016-12-15T06:10:08.970Z,2.3
2016-12-15T06:11:11.915Z,2.3
2016-12-15T06:12:15.369Z,2.3
2016-12-15T06:14:21.729Z,2.3
2016-12-15T06:15:24.680Z,2.2
2016-12-15T06:16:27.630Z,2.2
2016-12-15T06:17:31.089Z,2.2
2016-12-15T06:18:34.030Z,2.3
2016-12-15T06:19:37.475Z,2.3
2016-12-15T06:20:40.418Z,2.2
2016-12-15T06:21:43.868Z,2.2
2016-12-15T06:22:46.808Z,2.2
2016-12-15T06:23:50.262Z,2.1
2016-12-15T06:24:53.203Z,2.1
2016-12-15T06:25:56.653Z,2.1
2016-12-15T06:26:59.602Z,2.1
2016-12-15T06:28:03.053Z,2.1
2016-12-15T06:29:06.000Z,2.2
2016-12-15T06:30:09.452Z,2.1
2016-12-15T06:31:12.392Z,2.1
2016-12-15T06:32:15.336Z,2.1
2016-12-15T06:33:18.786Z,2.1
2016-12-15T06:34:21.741Z,2.1
2016-12-15T06:35:25.189Z,2.2
2016-12-15T06:36:28.130Z,2.2
2016-12-15T06:37:31.582Z,2.2
2016-12-15T06:38:34.529Z,2.2
2016-12-15T06:40:40.885Z,2.1
2016-12-15T06:41:44.329Z,2.1
2016-12-15T06:42:47.271Z,2.1
2016-12-15T06:43:50.724Z,2.1
2016-12-15T06:44:53.675Z,2.1
2016-12-15T06:45:57.129Z,2.1
2016-12-15T06:47:00.082Z,2.1
2016-12-15T06:48:03.032Z,2
2016-12-15T06:49:06.481Z,2
2016-12-15T06:50:09.419Z,2
2016-12-15T06:51:12.864Z,2
2016-12-15T06:52:15.813Z,2
2016-12-15T06:53:19.266Z,2
2016-12-15T06:54:22.212Z,2
2016-12-15T06:55:25.657Z,2
2016-12-15T06:57:32.011Z,2
2016-12-15T06:58:34.958Z,2
2016-12-15T06:59:38.405Z,2
2016-12-15T07:00:41.376Z,2
2016-12-15T07:01:44.824Z,1.9
2016-12-15T07:02:47.766Z,1.9
2016-12-15T07:03:50.714Z,1.9
2016-12-15T07:04:54.161Z,1.8
2016-12-15T07:05:57.110Z,1.9
2016-12-15T07:08:03.478Z,1.8
2016-12-15T07:09:06.931Z,1.8
2016-12-15T07:10:09.874Z,1.8
2016-12-15T07:11:13.320Z,1.8
2016-12-15T07:12:16.263Z,1.8
2016-12-15T07:13:19.709Z,1.8
2016-12-15T07:14:22.654Z,1.8
2016-12-15T07:15:25.602Z,1.8
2016-12-15T07:16:29.050Z,1.8
2016-12-15T07:17:31.991Z,1.7
2016-12-15T07:18:35.469Z,1.7
2016-12-15T07:19:38.413Z,1.6
2016-12-15T07:20:41.870Z,1.6
2016-12-15T07:21:44.847Z,1.6
2016-12-15T07:22:48.297Z,1.6
2016-12-15T07:23:51.243Z,1.6
2016-12-15T07:24:54.187Z,1.6
2016-12-15T07:25:57.638Z,1.6
2016-12-15T07:27:00.584Z,1.6
2016-12-15T07:28:04.035Z,1.6
2016-12-15T07:29:06.981Z,1.6
2016-12-15T07:30:10.435Z,1.6
2016-12-15T07:31:13.378Z,1.5
2016-12-15T07:33:19.737Z,1.5
2016-12-15T07:34:22.679Z,1.5
2016-12-15T07:35:26.125Z,1.5
2016-12-15T07:36:29.067Z,1.5
2016-12-15T07:37:32.517Z,1.5
2016-12-15T07:38:35.466Z,1.5
2016-12-15T07:39:38.911Z,1.5
2016-12-15T07:40:41.854Z,1.4
2016-12-15T07:41:45.309Z,1.4
2016-12-15T07:42:48.257Z,1.4
2016-12-15T07:44:54.617Z,1.5
2016-12-15T07:45:57.565Z,1.5
2016-12-15T07:47:01.014Z,1.5
2016-12-15T07:48:03.959Z,1.5
2016-12-15T07:50:10.454Z,1.5
2016-12-15T07:51:13.641Z,1.5
2016-12-15T07:52:16.837Z,1.5
2016-12-15T07:53:19.972Z,1.5
2016-12-15T07:54:23.398Z,1.5
2016-12-15T07:55:26.035Z,1.5
2016-12-15T07:56:29.196Z,1.5
2016-12-15T07:57:32.635Z,1.5
2016-12-15T07:58:35.796Z,1.5
2016-12-15T07:59:38.940Z,1.4
2016-12-15T08:00:42.070Z,1.4
2016-12-15T08:01:45.199Z,1.5
2016-12-15T08:02:48.539Z,1.5
2016-12-15T08:03:51.662Z,1.4
2016-12-15T08:04:54.794Z,1.5
2016-12-15T08:05:57.968Z,1.4
2016-12-15T08:08:04.185Z,1.5
2016-12-15T08:09:07.308Z,1.5
2016-12-15T08:10:10.470Z,1.5
2016-12-15T08:11:13.823Z,1.5
2016-12-15T08:12:16.950Z,1.5
2016-12-15T08:13:20.073Z,1.5
2016-12-15T08:14:23.202Z,1.5
2016-12-15T08:15:26.340Z,1.5
2016-12-15T08:16:29.969Z,1.5
2016-12-15T08:17:32.598Z,1.5
2016-12-15T08:18:35.730Z,1.5
2016-12-15T08:19:38.902Z,1.5
2016-12-15T08:20:42.025Z,1.5
2016-12-15T08:22:48.246Z,1.5
2016-12-15T08:23:51.595Z,1.4
2016-12-15T08:24:54.719Z,1.4
2016-12-15T08:25:57.873Z,1.5
2016-12-15T08:27:01.030Z,1.4
2016-12-15T08:28:04.186Z,1.5
2016-12-15T08:29:07.323Z,1.5
2016-12-15T08:30:10.454Z,1.5
2016-12-15T08:31:13.586Z,1.5
2016-12-15T08:32:16.715Z,1.5
2016-12-15T08:33:20.339Z,1.5
2016-12-15T08:34:23.458Z,1.5
2016-12-15T08:35:26.618Z,1.5
2016-12-15T08:36:29.747Z,1.5
2016-12-15T08:37:32.877Z,1.5
2016-12-15T08:38:36.010Z,1.5
2016-12-15T08:39:39.133Z,1.4
2016-12-15T08:40:42.258Z,1.5
2016-12-15T08:41:45.389Z,1.5
2016-12-15T08:42:48.515Z,1.5
2016-12-15T08:43:51.635Z,1.5
2016-12-15T08:44:55.009Z,1.5
2016-12-15T08:45:58.130Z,1.4
2016-12-15T08:47:01.259Z,1.5
2016-12-15T08:49:07.481Z,1.5
2016-12-15T08:50:10.609Z,1.5
2016-12-15T08:51:13.734Z,1.5
2016-12-15T08:52:16.861Z,1.5
2016-12-15T08:53:19.990Z,1.5
2016-12-15T08:54:23.634Z,1.5
2016-12-15T08:55:26.793Z,1.5
2016-12-15T08:56:29.958Z,1.5
2016-12-15T08:57:33.095Z,1.5
2016-12-15T08:58:36.229Z,1.5
2016-12-15T09:00:42.305Z,1.5
2016-12-15T09:01:45.709Z,1.5
2016-12-15T09:02:48.837Z,1.5
2016-12-15T09:03:51.970Z,1.5
2016-12-15T09:04:55.233Z,1.5
2016-12-15T09:05:58.355Z,1.5
2016-12-15T09:07:01.491Z,1.5
2016-12-15T09:08:04.614Z,1.5
2016-12-15T09:09:07.735Z,1.5
2016-12-15T09:10:10.860Z,1.5
2016-12-15T09:11:14.002Z,1.5
2016-12-15T09:12:17.635Z,1.5
2016-12-15T09:13:20.352Z,1.5
2016-12-15T09:14:23.517Z,1.5
2016-12-15T09:15:26.706Z,1.5
2016-12-15T09:16:29.867Z,1.6
2016-12-15T09:17:33.039Z,1.6
2016-12-15T09:18:36.201Z,1.6
2016-12-15T09:19:39.355Z,1.6
2016-12-15T09:21:45.616Z,1.6
2016-12-15T09:22:48.789Z,1.6
2016-12-15T09:23:51.974Z,1.6
2016-12-15T09:24:55.140Z,1.6
2016-12-15T09:25:58.285Z,1.6
2016-12-15T09:27:01.664Z,1.6
2016-12-15T09:28:04.880Z,1.6
2016-12-15T09:29:08.047Z,1.6
2016-12-15T09:30:11.219Z,1.6
2016-12-15T09:31:13.992Z,1.6
2016-12-15T09:32:17.121Z,1.7
2016-12-15T09:33:20.246Z,1.7
2016-12-15T09:34:23.877Z,1.6
2016-12-15T09:35:27.003Z,1.6
2016-12-15T09:36:29.852Z,1.6
2016-12-15T09:38:36.247Z,1.6
2016-12-15T09:39:39.420Z,1.7
2016-12-15T09:40:42.583Z,1.7
2016-12-15T09:41:45.732Z,1.7
2016-12-15T09:42:48.876Z,1.6
2016-12-15T09:43:52.018Z,1.7
2016-12-15T09:44:55.163Z,1.7
2016-12-15T09:45:58.350Z,1.7
2016-12-15T09:47:01.483Z,1.7
2016-12-15T09:49:08.203Z,1.8
2016-12-15T09:50:11.327Z,1.8
2016-12-15T09:51:14.451Z,1.8
2016-12-15T09:52:17.583Z,1.8
2016-12-15T09:54:23.796Z,1.8
2016-12-15T09:55:26.937Z,1.8
2016-12-15T09:56:30.084Z,1.8
2016-12-15T09:57:33.236Z,1.8
2016-12-15T09:58:36.522Z,1.8
2016-12-15T09:59:39.654Z,1.8
2016-12-15T10:00:42.781Z,1.8
2016-12-15T10:01:45.917Z,1.8
2016-12-15T10:02:49.042Z,1.8
2016-12-15T10:04:55.761Z,1.8
2016-12-15T10:05:58.884Z,1.8
2016-12-15T10:07:02.010Z,1.8
2016-12-15T10:08:05.138Z,1.8
2016-12-15T10:09:08.262Z,1.8
2016-12-15T10:10:11.616Z,1.8
2016-12-15T10:11:14.765Z,1.8
2016-12-15T10:12:17.919Z,1.8
2016-12-15T10:13:21.129Z,1.8
2016-12-15T10:14:23.894Z,1.8
2016-12-15T10:15:27.073Z,1.8
2016-12-15T10:16:30.740Z,1.8
2016-12-15T10:17:33.385Z,1.8
2016-12-15T10:18:36.518Z,1.8
2016-12-15T10:19:39.885Z,1.8
2016-12-15T10:20:43.303Z,1.9
2016-12-15T10:21:46.432Z,1.8
2016-12-15T10:22:49.565Z,1.8
2016-12-15T10:23:52.688Z,1.8
2016-12-15T10:24:55.846Z,1.9
2016-12-15T10:25:58.999Z,1.9
2016-12-15T10:27:02.286Z,1.9
2016-12-15T10:28:05.416Z,1.9
2016-12-15T10:29:08.534Z,1.9
2016-12-15T10:30:11.660Z,2
2016-12-15T10:31:14.790Z,2
2016-12-15T10:32:17.926Z,2
2016-12-15T10:33:21.053Z,2
2016-12-15T10:34:24.183Z,2
2016-12-15T10:35:27.318Z,2
2016-12-15T10:36:30.947Z,2
2016-12-15T10:38:37.170Z,2
2016-12-15T10:39:40.298Z,2
2016-12-15T10:40:43.429Z,2
2016-12-15T10:41:46.558Z,2
2016-12-15T10:42:49.680Z,2
2016-12-15T10:43:52.799Z,2
2016-12-15T10:44:55.928Z,2
2016-12-15T10:45:59.275Z,2
2016-12-15T10:47:02.677Z,2
2016-12-15T10:48:05.526Z,2
2016-12-15T10:49:09.231Z,2.1
2016-12-15T10:50:11.882Z,2.1
2016-12-15T10:51:15.040Z,2
2016-12-15T10:52:18.177Z,2
2016-12-15T10:53:21.342Z,2
2016-12-15T10:54:24.541Z,2
2016-12-15T10:55:27.707Z,2
2016-12-15T10:56:30.852Z,2
2016-12-15T10:57:34.560Z,2
2016-12-15T10:58:37.192Z,2
2016-12-15T11:00:43.785Z,2.1
2016-12-15T11:01:46.924Z,2.1
2016-12-15T11:02:50.050Z,2.1
2016-12-15T11:03:53.170Z,2.1
2016-12-15T11:04:56.290Z,2.1
2016-12-15T11:05:59.645Z,2.1
2016-12-15T11:07:02.836Z,2.1
2016-12-15T11:08:06.005Z,2.1
2016-12-15T11:09:09.178Z,2.1
2016-12-15T11:10:12.342Z,2.1
2016-12-15T11:12:19.082Z,2.1
2016-12-15T11:13:22.217Z,2.1
2016-12-15T11:14:24.854Z,2.1
2016-12-15T11:15:28.480Z,2.1
2016-12-15T11:16:31.617Z,2.2
2016-12-15T11:17:34.464Z,2.2
2016-12-15T11:18:37.591Z,2.2
2016-12-15T11:19:40.716Z,2.2
2016-12-15T11:20:44.355Z,2.3
2016-12-15T11:21:47.491Z,2.2
2016-12-15T11:22:50.620Z,2.2
2016-12-15T11:23:53.756Z,2.2
2016-12-15T11:24:56.925Z,2.2
2016-12-15T11:27:03.230Z,2.3
2016-12-15T11:28:06.401Z,2.3
2016-12-15T11:29:09.543Z,2.2
2016-12-15T11:30:13.163Z,2.3
2016-12-15T11:31:15.786Z,2.3
2016-12-15T11:32:19.297Z,2.3
2016-12-15T11:33:22.246Z,2.3
2016-12-15T11:34:25.697Z,2.3
2016-12-15T11:35:28.636Z,2.3
2016-12-15T11:36:32.086Z,2.3
2016-12-15T11:37:35.053Z,2.3
2016-12-15T11:38:38.001Z,2.3
2016-12-15T11:39:41.455Z,2.3
2016-12-15T11:40:44.397Z,2.3
2016-12-15T11:41:47.843Z,2.3
2016-12-15T11:43:54.204Z,2.3
2016-12-15T11:44:57.153Z,2.3
2016-12-15T11:46:00.600Z,2.3
2016-12-15T11:47:03.548Z,2.3
2016-12-15T11:48:06.999Z,2.3
2016-12-15T11:49:09.952Z,2.3
2016-12-15T11:50:13.396Z,2.3
2016-12-15T11:52:19.755Z,2.3
2016-12-15T11:53:22.701Z,2.3
2016-12-15T11:54:26.152Z,2.3
2016-12-15T11:55:29.099Z,2.2
2016-12-15T11:56:32.045Z,2.3
2016-12-15T11:57:35.493Z,2.3
2016-12-15T11:58:38.445Z,2.3
2016-12-15T11:59:41.895Z,2.2
2016-12-15T12:00:44.840Z,2.2
2016-12-15T12:01:48.303Z,2.3
2016-12-15T12:02:51.250Z,2.2
2016-12-15T12:03:54.691Z,2.2
2016-12-15T12:04:57.645Z,2.2
2016-12-15T12:06:01.089Z,2.3
2016-12-15T12:08:07.445Z,2.3
2016-12-15T12:09:10.388Z,2.3
2016-12-15T12:10:13.836Z,2.3
2016-12-15T12:11:16.793Z,2.3
2016-12-15T12:12:20.243Z,2.3
2016-12-15T12:13:23.190Z,2.3
2016-12-15T12:14:26.138Z,2.3
2016-12-15T12:16:32.502Z,2.3
2016-12-15T12:17:35.959Z,2.3
2016-12-15T12:18:38.905Z,2.3
2016-12-15T12:19:42.356Z,2.3
2016-12-15T12:20:45.307Z,2.3
2016-12-15T12:22:51.662Z,2.3
2016-12-15T12:23:55.128Z,2.3
2016-12-15T12:24:58.074Z,2.3
2016-12-15T12:26:01.527Z,2.3
2016-12-15T12:27:04.632Z,2.3
2016-12-15T12:28:07.577Z,2.3
2016-12-15T12:29:11.021Z,2.3
2016-12-15T12:30:13.968Z,2.3
2016-12-15T12:31:17.418Z,2.3
2016-12-15T12:32:20.361Z,2.3
2016-12-15T12:33:23.814Z,2.3
2016-12-15T12:34:26.766Z,2.3
2016-12-15T12:35:30.216Z,2.3
2016-12-15T12:36:33.159Z,2.4
2016-12-15T12:38:39.589Z,2.4
2016-12-15T12:39:42.553Z,2.4
2016-12-15T12:40:46.007Z,2.4
2016-12-15T12:41:48.956Z,2.4
2016-12-15T12:42:52.399Z,2.4
2016-12-15T12:43:55.344Z,2.4
2016-12-15T12:44:58.802Z,2.5
2016-12-15T12:46:01.753Z,2.5
2016-12-15T12:48:08.109Z,2.5
2016-12-15T12:49:11.567Z,2.5
2016-12-15T12:50:14.517Z,2.5
2016-12-15T12:52:20.871Z,2.4
2016-12-15T12:53:24.326Z,2.4
2016-12-15T12:54:27.270Z,2.4
2016-12-15T12:55:30.349Z,2.5
2016-12-15T12:56:33.797Z,2.5
2016-12-15T12:57:36.906Z,2.5
2016-12-15T12:58:39.998Z,2.5
2016-12-15T12:59:43.446Z,2.5
2016-12-15T13:00:46.393Z,2.5
2016-12-15T13:01:49.839Z,2.5
2016-12-15T13:02:52.782Z,2.5
2016-12-15T13:03:55.761Z,2.5
2016-12-15T13:04:59.212Z,2.5
2016-12-15T13:06:02.171Z,2.5
2016-12-15T13:07:05.629Z,2.5
2016-12-15T13:08:08.573Z,2.5
2016-12-15T13:09:12.016Z,2.5
2016-12-15T13:10:14.965Z,2.4
2016-12-15T13:11:18.410Z,2.4
2016-12-15T13:12:21.352Z,2.4
2016-12-15T13:13:24.799Z,2.4
2016-12-15T13:14:27.751Z,2.4
2016-12-15T13:15:31.201Z,2.4
2016-12-15T13:16:34.150Z,2.4
2016-12-15T13:17:37.598Z,2.4
2016-12-15T13:18:40.538Z,2.4
2016-12-15T13:19:43.987Z,2.4
2016-12-15T13:20:46.931Z,2.4
2016-12-15T13:21:49.880Z,2.3
2016-12-15T13:22:53.362Z,2.3
2016-12-15T13:23:56.305Z,2.3
2016-12-15T13:24:59.761Z,2.3
2016-12-15T13:26:02.723Z,2.3
2016-12-15T13:27:06.170Z,2.3
2016-12-15T13:28:09.113Z,2.3
2016-12-15T13:29:12.560Z,2.3
2016-12-15T13:30:15.501Z,2.3
2016-12-15T13:31:18.952Z,2.3
2016-12-15T13:32:21.909Z,2.3
2016-12-15T13:33:25.362Z,2.3
2016-12-15T13:34:28.308Z,2.3
2016-12-15T13:35:31.255Z,2.3
2016-12-15T13:36:34.701Z,2.3
2016-12-15T13:37:37.652Z,2.3
2016-12-15T13:38:41.095Z,2.3
2016-12-15T13:39:44.043Z,2.3
2016-12-15T13:40:47.491Z,2.3
2016-12-15T13:41:50.438Z,2.3
2016-12-15T13:42:53.886Z,2.3
2016-12-15T13:43:56.830Z,2.3
2016-12-15T13:45:00.280Z,2.3
2016-12-15T13:46:03.232Z,2.3
2016-12-15T13:48:09.588Z,2.3
2016-12-15T13:49:13.091Z,2.3
2016-12-15T13:50:16.034Z,2.3
2016-12-15T13:51:18.973Z,2.3
2016-12-15T13:52:22.420Z,2.3
2016-12-15T13:53:25.369Z,2.3
2016-12-15T13:54:28.815Z,2.3
2016-12-15T13:55:31.759Z,2.3
2016-12-15T13:56:35.213Z,2.2
2016-12-15T13:57:38.157Z,2.2
2016-12-15T13:58:41.607Z,2.2
2016-12-15T13:59:44.553Z,2.1
2016-12-15T14:00:48.000Z,2.1
2016-12-15T14:02:54.363Z,2.1
2016-12-15T14:03:57.307Z,2.1
2016-12-15T14:05:00.755Z,2.1
2016-12-15T14:06:03.699Z,2.1
2016-12-15T14:07:06.647Z,2.1
2016-12-15T14:08:10.092Z,2.1
2016-12-15T14:10:16.446Z,2.1
2016-12-15T14:11:19.390Z,2.1
2016-12-15T14:12:22.835Z,2.1
2016-12-15T14:13:25.811Z,2.1
2016-12-15T14:14:29.264Z,2.1
2016-12-15T14:15:32.210Z,2.1
2016-12-15T14:17:38.564Z,2.1
2016-12-15T14:18:42.014Z,2.1
2016-12-15T14:19:44.963Z,2.1
2016-12-15T14:20:48.409Z,2.1
2016-12-15T14:21:51.355Z,2.1
2016-12-15T14:22:54.337Z,2.1
2016-12-15T14:23:57.794Z,2.1
2016-12-15T14:25:00.741Z,2.1
2016-12-15T14:26:04.191Z,2.1
2016-12-15T14:27:07.135Z,2.1
2016-12-15T14:28:10.585Z,2
2016-12-15T14:29:13.539Z,2
2016-12-15T14:30:16.987Z,2.2
2016-12-15T14:32:01.197Z,9.2
2016-12-15T14:33:17.571Z,6.3
2016-12-15T14:34:20.767Z,4.6
2016-12-15T14:35:24.216Z,3.6
2016-12-15T14:36:27.165Z,3
2016-12-15T14:37:30.749Z,2.6
2016-12-15T14:38:33.699Z,2.5
2016-12-15T14:39:37.142Z,2.3
2016-12-15T14:40:40.080Z,2.2
2016-12-15T14:41:43.523Z,2.1
2016-12-15T14:42:46.971Z,2.1
2016-12-15T14:43:49.914Z,2.1
2016-12-15T14:44:53.369Z,2.1
2016-12-15T14:45:56.315Z,2.1
2016-12-15T14:46:59.793Z,2.1
2016-12-15T14:48:02.746Z,2.1
2016-12-15T14:49:06.199Z,2.1
2016-12-15T14:50:09.646Z,2
2016-12-15T14:51:12.589Z,2
2016-12-15T14:52:16.040Z,2
2016-12-15T14:53:18.988Z,2
2016-12-15T14:54:22.439Z,2
2016-12-15T14:55:25.449Z,2
2016-12-15T14:56:28.897Z,2
2016-12-15T14:57:31.846Z,2
2016-12-15T14:58:35.292Z,2
2016-12-15T14:59:38.234Z,2
2016-12-15T15:00:41.683Z,2
2016-12-15T15:01:44.624Z,2
2016-12-15T15:02:48.111Z,2
2016-12-15T15:03:51.051Z,2
2016-12-15T15:04:54.566Z,2
2016-12-15T15:05:57.509Z,2
2016-12-15T15:07:00.957Z,2
2016-12-15T15:08:04.031Z,1.9
2016-12-15T15:09:07.485Z,1.9
2016-12-15T15:10:10.428Z,1.9
2016-12-15T15:11:13.878Z,1.9
2016-12-15T15:12:16.819Z,1.9
2016-12-15T15:13:20.273Z,1.8
2016-12-15T15:14:23.216Z,1.9
2016-12-15T15:15:26.668Z,1.9
2016-12-15T15:16:29.615Z,1.9
2016-12-15T15:17:33.060Z,1.9
2016-12-15T15:18:36.006Z,1.9
2016-12-15T15:19:39.460Z,1.9
2016-12-15T15:20:42.405Z,1.9
2016-12-15T15:21:45.850Z,1.9
2016-12-15T15:23:52.200Z,1.9
2016-12-15T15:24:55.144Z,1.9
2016-12-15T15:25:58.597Z,1.8
2016-12-15T15:27:01.548Z,1.8
2016-12-15T15:28:05.131Z,1.8
2016-12-15T15:29:08.079Z,1.8
2016-12-15T15:30:11.524Z,1.8
2016-12-15T15:31:14.472Z,1.8
2016-12-15T15:32:18.058Z,1.8
2016-12-15T15:33:21.004Z,1.8
2016-12-15T15:34:24.450Z,1.8
2016-12-15T15:35:27.401Z,1.8
2016-12-15T15:36:30.854Z,1.8
2016-12-15T15:37:33.807Z,1.7
2016-12-15T15:38:37.250Z,1.8
2016-12-15T15:39:40.192Z,1.8
2016-12-15T15:40:43.639Z,1.8
2016-12-15T15:41:46.588Z,1.8
2016-12-15T15:42:50.036Z,1.8
2016-12-15T15:43:52.982Z,1.8
2016-12-15T15:45:59.344Z,1.8
2016-12-15T15:47:02.789Z,1.8
2016-12-15T15:48:05.765Z,1.8